Time;durP1;ratioP1;P1;durP2;ratioP2;P2;SDS_P1;SDS_P2;PMS_P1;PMS_P2;Temp;Humidity;BMP_temperature;BMP_pressure;BME280_temperature;BME280_humidity;BME280_pressure;Samples;Min_cycle;Max_cycle;Signal;HPM_P1;HPM_P2
2023/06/16 00:00:33;;;;;;;5.95;5.32;;;;;;;14.81;100.00;101036.41;4940936;29;20087;-78
2023/06/16 00:03:01;;;;;;;5.50;5.00;;;;;;;14.81;100.00;101041.69;4947995;29;20462;-79
2023/06/16 00:05:28;;;;;;;6.82;5.40;;;;;;;14.82;100.00;101030.25;4957029;29;20045;-79
2023/06/16 00:07:58;;;;;;;7.80;5.57;;;;;;;14.84;100.00;101031.09;4923269;28;20035;-85
2023/06/16 00:10:25;;;;;;;7.80;5.63;;;;;;;14.83;99.34;101034.63;4942332;29;20122;-80
2023/06/16 00:12:54;;;;;;;6.05;4.72;;;;;;;14.80;99.44;101030.28;4944819;29;20047;-78
2023/06/16 00:15:21;;;;;;;6.13;4.88;;;;;;;14.78;99.25;101028.59;4956051;29;20043;-78
2023/06/16 00:17:49;;;;;;;9.00;5.75;;;;;;;14.69;99.25;101027.00;4948795;29;20047;-83
2023/06/16 00:20:19;;;;;;;10.23;5.88;;;;;;;14.60;99.85;101029.78;4933684;29;20114;-79
2023/06/16 00:22:47;;;;;;;7.95;5.32;;;;;;;14.52;100.00;101033.47;4925263;29;20063;-81
2023/06/16 00:25:16;;;;;;;6.25;5.63;;;;;;;14.44;100.00;101031.84;4924353;29;20051;-82
2023/06/16 00:27:43;;;;;;;5.88;5.35;;;;;;;14.36;100.00;101032.84;4933586;29;20078;-78
2023/06/16 00:30:10;;;;;;;6.43;5.13;;;;;;;14.32;100.00;101035.59;4947437;29;20071;-87
2023/06/16 00:32:37;;;;;;;5.38;4.70;;;;;;;14.29;100.00;101041.78;4955175;29;20039;-77
2023/06/16 00:35:04;;;;;;;6.20;5.57;;;;;;;14.27;100.00;101037.44;4928095;29;20039;-77
2023/06/16 00:37:30;;;;;;;6.50;5.25;;;;;;;14.24;100.00;101043.63;4924542;29;20470;-82
2023/06/16 00:39:56;;;;;;;7.75;5.07;;;;;;;14.22;100.00;101038.41;4941756;29;20478;-79
2023/06/16 00:42:23;;;;;;;6.20;5.60;;;;;;;14.22;100.00;101042.78;4933786;29;20394;-79
2023/06/16 00:44:49;;;;;;;7.80;5.70;;;;;;;14.22;100.00;101046.28;4938477;29;20435;-80
2023/06/16 00:47:16;;;;;;;5.10;4.60;;;;;;;14.22;100.00;101042.78;4940034;28;20548;-78
2023/06/16 00:49:42;;;;;;;5.40;3.97;;;;;;;14.18;99.33;101036.72;4934397;28;20035;-82
2023/06/16 00:52:14;;;;;;;5.43;4.93;;;;;;;14.12;99.39;101038.56;4945836;29;20039;-79
2023/06/16 00:54:40;;;;;;;6.88;4.90;;;;;;;14.10;99.49;101035.09;4937860;29;20035;-84
2023/06/16 00:57:07;;;;;;;5.97;5.28;;;;;;;14.07;99.37;101034.25;4925322;29;20045;-82
2023/06/16 00:59:34;;;;;;;5.30;4.80;;;;;;;14.06;99.32;101039.53;4930598;29;20121;-79
2023/06/16 01:02:00;;;;;;;6.40;5.07;;;;;;;14.02;99.13;101033.47;4923061;29;20061;-80
2023/06/16 01:04:28;;;;;;;6.43;4.60;;;;;;;14.00;99.77;101032.63;4933167;29;20493;-81
2023/06/16 01:07:21;;;;;;;8.30;5.05;;;;;;;13.98;99.71;101031.78;4939548;29;20057;-79
2023/06/16 01:10:39;;;;;;;8.50;5.25;;;;;;;13.93;100.00;101022.22;4935929;28;20074;-80
2023/06/16 01:13:22;;;;;;;5.88;5.20;;;;;;;13.86;100.00;101032.84;4900927;29;20047;-90
2023/06/16 01:15:50;;;;;;;8.90;6.00;;;;;;;13.81;100.00;101029.44;4937163;29;20060;-87
2023/06/16 01:18:22;;;;;;;5.20;4.70;;;;;;;13.80;100.00;101022.44;4955133;28;20122;-80
2023/06/16 01:21:05;;;;;;;8.13;6.30;;;;;;;13.80;100.00;101029.47;4943288;29;20113;-80
2023/06/16 01:24:03;;;;;;;5.97;4.63;;;;;;;13.83;99.98;101029.41;4931929;29;20434;-82
2023/06/16 01:26:35;;;;;;;6.53;5.68;;;;;;;13.84;99.39;101031.16;4935427;29;20134;-85
2023/06/16 01:29:06;;;;;;;6.05;5.45;;;;;;;13.83;99.10;101032.91;4931172;29;20086;-79
2023/06/16 01:31:35;;;;;;;10.38;6.10;;;;;;;13.82;99.24;101036.44;4930353;29;20127;-80
2023/06/16 01:34:03;;;;;;;7.05;6.13;;;;;;;13.83;99.35;101034.66;4935884;29;20763;-79
2023/06/16 01:36:31;;;;;;;6.70;5.32;;;;;;;13.84;99.28;101026.75;4936632;29;20039;-80
2023/06/16 01:39:00;;;;;;;9.45;5.00;;;;;;;13.86;99.12;101032.00;4947931;29;20036;-80
2023/06/16 01:41:29;;;;;;;9.15;5.45;;;;;;;13.87;99.00;101028.44;4936018;29;20047;-80
2023/06/16 01:43:56;;;;;;;9.23;4.63;;;;;;;13.89;98.99;101035.44;4934668;29;20043;-79
2023/06/16 01:46:23;;;;;;;6.00;5.18;;;;;;;13.89;98.25;101032.78;4919903;29;20039;-78
2023/06/16 01:48:50;;;;;;;7.65;5.43;;;;;;;13.91;98.53;101030.16;4923455;28;20521;-84
2023/06/16 01:51:17;;;;;;;9.60;6.22;;;;;;;13.95;98.22;101030.97;4935146;29;20426;-81
2023/06/16 01:53:44;;;;;;;8.80;6.03;;;;;;;13.92;97.90;101034.50;4921966;29;20130;-78
2023/06/16 01:56:13;;;;;;;7.38;5.20;;;;;;;13.89;98.10;101026.69;4931010;29;20457;-78
2023/06/16 01:58:40;;;;;;;5.53;4.63;;;;;;;13.85;97.99;101025.00;4936060;29;20043;-78
2023/06/16 02:01:14;;;;;;;6.97;5.47;;;;;;;13.80;98.09;101029.47;4935858;29;20035;-82
2023/06/16 02:03:52;;;;;;;5.93;5.32;;;;;;;13.78;97.94;101039.13;4921905;29;20631;-76
2023/06/16 02:06:26;;;;;;;6.28;5.68;;;;;;;13.74;98.16;101033.06;4929421;28;20054;-77
2023/06/16 02:08:54;;;;;;;6.55;5.10;;;;;;;13.70;98.36;101026.97;4935348;29;20031;-78
2023/06/16 02:11:21;;;;;;;5.30;4.80;;;;;;;13.69;98.34;101034.91;4935177;29;20051;-78
2023/06/16 02:13:47;;;;;;;6.40;4.78;;;;;;;13.66;97.89;101025.31;4935863;29;20035;-79
2023/06/16 02:16:14;;;;;;;6.15;5.45;;;;;;;13.63;97.81;101024.47;4932573;29;20039;-81
2023/06/16 02:18:40;;;;;;;6.85;5.45;;;;;;;13.63;97.85;101021.84;4940612;28;20082;-79
2023/06/16 02:21:07;;;;;;;8.00;5.00;;;;;;;13.63;98.03;101020.06;4932199;29;20044;-79
2023/06/16 02:23:33;;;;;;;8.55;5.97;;;;;;;13.66;97.52;101029.69;4931702;29;20047;-78
2023/06/16 02:26:00;;;;;;;6.90;6.05;;;;;;;13.71;97.04;101027.84;4932575;29;20126;-86
2023/06/16 02:28:27;;;;;;;13.02;5.50;;;;;;;13.79;96.45;101036.47;4917726;29;20123;-80
2023/06/16 02:30:53;;;;;;;6.07;5.25;;;;;;;13.85;95.79;101030.25;4936501;29;20110;-85
2023/06/16 02:33:20;;;;;;;6.63;4.75;;;;;;;13.85;95.47;101033.75;4932946;29;20039;-79
2023/06/16 02:35:46;;;;;;;7.13;4.50;;;;;;;13.85;95.37;101022.38;4933318;29;20070;-82
2023/06/16 02:38:13;;;;;;;9.70;5.07;;;;;;;13.86;95.47;101022.34;4933815;29;20059;-79
2023/06/16 02:40:39;;;;;;;6.95;5.53;;;;;;;13.87;95.36;101025.81;4948549;29;20031;-82
2023/06/16 02:43:05;;;;;;;7.88;4.93;;;;;;;13.88;95.25;101025.81;4946940;29;20058;-87
2023/06/16 02:45:32;;;;;;;8.50;5.47;;;;;;;13.89;94.85;101024.91;4924651;29;20035;-80
2023/06/16 02:47:58;;;;;;;8.23;5.15;;;;;;;13.91;94.84;101032.78;4947294;28;20039;-83
2023/06/16 02:50:25;;;;;;;8.90;5.28;;;;;;;13.94;94.46;101023.97;4933752;29;20653;-80
2023/06/16 02:52:54;;;;;;;5.38;4.80;;;;;;;13.97;93.93;101035.31;4951027;29;20058;-79
2023/06/16 02:55:21;;;;;;;5.18;4.68;;;;;;;13.99;93.75;101032.66;4937290;29;20077;-81
2023/06/16 02:57:47;;;;;;;7.88;5.35;;;;;;;14.03;93.22;101032.56;4940222;29;20470;-78
2023/06/16 03:00:14;;;;;;;7.75;5.50;;;;;;;14.04;92.65;101026.41;4931035;29;20529;-78
2023/06/16 03:02:41;;;;;;;5.53;5.03;;;;;;;14.08;92.93;101035.13;4940031;29;20043;-78
2023/06/16 03:05:08;;;;;;;5.30;4.78;;;;;;;14.12;92.64;101030.66;4938611;29;20430;-81
2023/06/16 03:07:36;;;;;;;6.82;6.20;;;;;;;14.13;92.58;101027.13;4937597;29;20508;-78
2023/06/16 03:10:06;;;;;;;8.95;5.30;;;;;;;14.11;92.45;101028.94;4926678;29;20136;-78
2023/06/16 03:12:32;;;;;;;5.70;5.13;;;;;;;14.07;92.43;101028.13;4937921;29;20035;-78
2023/06/16 03:14:59;;;;;;;5.40;4.85;;;;;;;13.98;92.50;101029.16;4937283;29;20042;-80
2023/06/16 03:17:26;;;;;;;7.95;5.57;;;;;;;13.87;92.91;101026.72;4936002;29;20371;-79
2023/06/16 03:19:52;;;;;;;8.77;5.35;;;;;;;13.78;93.69;101026.88;5021554;23;20074;-79
2023/06/16 03:22:19;;;;;;;7.18;5.13;;;;;;;13.71;94.10;101026.09;4969472;28;20050;-79
2023/06/16 03:25:02;;;;;;;7.53;5.88;;;;;;;13.61;94.43;101023.63;4955876;28;20042;-78
2023/06/16 03:27:49;;;;;;;9.27;5.70;;;;;;;13.49;94.78;101032.56;4969444;28;20043;-78
2023/06/16 03:31:00;;;;;;;7.78;5.78;;;;;;;13.42;94.63;101039.69;4973288;28;20038;-77
2023/06/16 03:33:26;;;;;;;8.05;6.18;;;;;;;13.35;95.00;101030.09;4972551;28;20135;-78
2023/06/16 03:35:54;;;;;;;8.95;5.95;;;;;;;13.29;94.71;101028.44;4973156;28;20066;-78
2023/06/16 03:38:26;;;;;;;7.28;6.57;;;;;;;13.26;94.99;101031.13;4971096;28;20039;-78
2023/06/16 03:40:53;;;;;;;7.63;6.72;;;;;;;13.21;94.96;101033.78;4944378;28;20105;-79
2023/06/16 03:43:19;;;;;;;7.38;6.47;;;;;;;13.20;95.29;101032.06;4970044;28;20031;-79
2023/06/16 03:45:47;;;;;;;9.85;6.70;;;;;;;13.26;95.20;101031.13;4955368;28;20054;-78
2023/06/16 03:48:14;;;;;;;6.63;5.63;;;;;;;13.37;94.30;101039.72;4954408;28;20047;-77
2023/06/16 03:50:40;;;;;;;7.30;5.47;;;;;;;13.48;93.49;101034.34;4973201;28;20039;-78
2023/06/16 03:53:23;;;;;;;6.53;5.47;;;;;;;13.52;92.98;101038.66;4973497;28;20046;-79
2023/06/16 03:56:47;;;;;;;6.63;5.55;;;;;;;13.56;92.37;101042.13;4974461;28;20037;-78
2023/06/16 03:59:19;;;;;;;5.47;4.85;;;;;;;13.66;92.18;101041.09;4955207;29;20042;-78
2023/06/16 04:01:46;;;;;;;5.03;4.45;;;;;;;13.68;91.52;101034.03;4967065;28;20069;-82
2023/06/16 04:04:13;;;;;;;8.27;6.20;;;;;;;13.73;91.25;101037.44;4972196;28;20070;-80
2023/06/16 04:06:40;;;;;;;7.32;5.00;;;;;;;13.79;90.98;101043.50;4960057;28;20142;-79
2023/06/16 04:09:15;;;;;;;7.10;5.63;;;;;;;13.83;90.67;101037.28;4985564;28;20374;-79
2023/06/16 04:11:42;;;;;;;6.80;6.07;;;;;;;13.84;91.15;101047.78;4972005;28;20466;-79
2023/06/16 04:14:09;;;;;;;9.75;5.68;;;;;;;13.89;90.69;101047.72;4972503;28;20046;-79
2023/06/16 04:16:37;;;;;;;8.77;5.82;;;;;;;13.90;90.11;101049.47;4973662;28;20093;-79
2023/06/16 04:40:25;;;;;;;7.80;6.03;;;;;;;14.02;90.59;101045.75;5050623;23;20048;-82
2023/06/16 04:42:52;;;;;;;7.75;6.18;;;;;;;14.03;90.04;101040.47;4871143;29;20067;-78
2023/06/16 04:45:20;;;;;;;11.48;7.32;;;;;;;14.03;89.75;101040.47;4890839;29;20044;-79
2023/06/16 04:47:50;;;;;;;9.50;5.95;;;;;;;14.04;89.95;101033.44;4890650;29;20112;-78
2023/06/16 04:50:17;;;;;;;8.48;5.65;;;;;;;14.07;89.94;101044.78;4865656;29;20051;-79
2023/06/16 04:52:47;;;;;;;12.77;6.43;;;;;;;14.15;89.58;101039.38;4887840;29;20047;-79
2023/06/16 04:55:16;;;;;;;7.72;5.93;;;;;;;14.21;88.91;101039.28;4890871;29;20040;-78
2023/06/16 04:57:43;;;;;;;6.90;5.85;;;;;;;14.29;88.86;101046.16;4883860;29;20048;-77
2023/06/16 05:00:10;;;;;;;7.35;6.03;;;;;;;14.39;88.52;101039.81;4868153;29;20068;-78
2023/06/16 05:02:37;;;;;;;9.15;6.88;;;;;;;14.50;87.86;101037.00;4900672;29;20052;-78
2023/06/16 05:05:04;;;;;;;8.00;7.00;;;;;;;14.57;87.56;101041.25;4903636;29;20044;-78
2023/06/16 05:07:32;;;;;;;12.88;7.30;;;;;;;14.66;87.08;101033.19;4878263;29;20053;-78
2023/06/16 05:09:59;;;;;;;10.45;6.65;;;;;;;14.74;86.54;101034.81;4883605;29;20116;-82
2023/06/16 05:12:27;;;;;;;7.63;6.05;;;;;;;14.79;86.00;101043.50;4880493;29;20087;-79
2023/06/16 05:14:54;;;;;;;10.68;5.85;;;;;;;14.84;86.24;101045.13;4886889;29;20072;-78
2023/06/16 05:17:21;;;;;;;8.00;6.30;;;;;;;15.00;86.18;101053.59;4884464;29;20048;-82
2023/06/16 05:19:48;;;;;;;8.35;5.85;;;;;;;15.14;85.67;101053.31;4889105;29;20763;-78
2023/06/16 05:22:14;;;;;;;8.40;6.53;;;;;;;15.29;85.33;101052.13;4882059;29;20052;-78
2023/06/16 05:24:41;;;;;;;9.73;6.28;;;;;;;15.42;85.14;101057.09;4885765;29;20063;-78
2023/06/16 05:27:07;;;;;;;13.70;6.85;;;;;;;15.49;84.93;101050.81;4905501;29;20044;-78
2023/06/16 05:29:34;;;;;;;7.18;5.10;;;;;;;15.63;84.58;101053.09;4882518;29;20495;-78
2023/06/16 05:32:00;;;;;;;7.75;5.25;;;;;;;15.74;84.05;101055.50;4893831;29;20047;-79
2023/06/16 05:34:27;;;;;;;8.25;6.07;;;;;;;15.78;83.84;101049.25;4899232;29;20055;-78
2023/06/16 05:36:53;;;;;;;7.10;6.43;;;;;;;15.87;83.22;101049.91;4888554;29;20036;-84
2023/06/16 05:39:20;;;;;;;7.18;6.05;;;;;;;15.88;83.33;101054.28;4896188;29;20044;-79
2023/06/16 05:41:47;;;;;;;9.27;6.47;;;;;;;15.95;83.40;101052.34;4905025;29;20083;-78
2023/06/16 05:44:15;;;;;;;10.15;6.70;;;;;;;16.12;83.00;101045.78;4917013;29;20040;-78
2023/06/16 05:46:42;;;;;;;9.48;6.45;;;;;;;16.29;82.45;101040.91;4910802;29;20056;-79
2023/06/16 05:49:08;;;;;;;7.03;6.05;;;;;;;16.37;81.83;101035.41;4900937;29;20131;-79
2023/06/16 05:51:35;;;;;;;10.18;6.63;;;;;;;16.50;81.39;101038.59;4919294;29;20044;-78
2023/06/16 05:54:02;;;;;;;8.05;6.40;;;;;;;16.66;80.66;101041.69;4918444;29;20087;-80
2023/06/16 05:56:28;;;;;;;6.82;5.78;;;;;;;16.73;80.69;101050.34;4916755;29;20040;-78
2023/06/16 05:58:55;;;;;;;7.72;6.88;;;;;;;16.71;80.08;101047.69;4909852;29;20464;-82
2023/06/16 06:01:21;;;;;;;7.05;6.35;;;;;;;16.57;80.78;101056.03;4908370;29;20463;-80
2023/06/16 06:03:48;;;;;;;7.63;6.90;;;;;;;16.44;81.64;101054.63;4901658;29;20040;-78
2023/06/16 06:06:15;;;;;;;9.77;6.95;;;;;;;16.44;81.77;101051.97;4916673;29;20043;-80
2023/06/16 06:08:42;;;;;;;9.00;6.90;;;;;;;16.47;81.93;101051.91;4900449;29;20622;-79
2023/06/16 06:11:09;;;;;;;10.15;8.20;;;;;;;16.48;81.85;101043.09;4900720;29;20480;-80
2023/06/16 06:13:36;;;;;;;8.77;6.97;;;;;;;16.47;82.09;101043.97;4917115;29;20043;-79
2023/06/16 06:16:02;;;;;;;9.85;7.85;;;;;;;16.53;81.92;101039.41;4917462;29;20043;-80
2023/06/16 06:18:29;;;;;;;11.13;8.13;;;;;;;16.61;81.93;101040.94;4908836;29;20032;-80
2023/06/16 06:20:56;;;;;;;9.27;7.97;;;;;;;16.66;81.41;101041.69;4916516;29;20040;-80
2023/06/16 06:23:22;;;;;;;10.23;6.90;;;;;;;16.63;81.54;101047.91;4916760;29;20495;-78
2023/06/16 06:25:48;;;;;;;12.25;8.18;;;;;;;16.69;81.51;101053.03;4917170;29;20103;-79
2023/06/16 06:28:15;;;;;;;9.18;7.55;;;;;;;16.77;81.75;101049.31;4901214;29;20122;-82
2023/06/16 06:30:41;;;;;;;8.93;7.53;;;;;;;16.90;81.40;101047.19;4916682;29;20139;-78
2023/06/16 06:33:08;;;;;;;10.85;8.60;;;;;;;17.02;81.05;101057.44;4916383;29;20063;-78
2023/06/16 06:35:34;;;;;;;8.80;7.90;;;;;;;16.93;81.00;101052.41;4916629;29;20400;-77
2023/06/16 06:38:02;;;;;;;9.00;8.13;;;;;;;16.90;81.52;101047.19;4916446;29;20040;-78
2023/06/16 06:40:28;;;;;;;9.65;7.47;;;;;;;16.87;81.80;101053.44;4899151;29;20361;-78
2023/06/16 06:42:55;;;;;;;9.68;8.70;;;;;;;16.89;81.46;101046.31;4866054;29;20116;-85
2023/06/16 06:45:21;;;;;;;9.98;7.72;;;;;;;16.86;81.84;101059.63;4875907;29;20051;-79
2023/06/16 06:47:48;;;;;;;11.88;8.07;;;;;;;16.86;81.79;101051.69;4874295;29;20037;-77
2023/06/16 06:50:15;;;;;;;10.40;9.30;;;;;;;16.89;81.28;101056.03;4882405;29;20044;-77
2023/06/16 06:52:41;;;;;;;11.75;8.80;;;;;;;16.94;80.74;101056.81;4870343;29;20127;-79
2023/06/16 06:55:08;;;;;;;9.15;8.25;;;;;;;17.06;81.08;101052.94;4890932;29;20116;-79
2023/06/16 06:57:36;;;;;;;13.20;9.35;;;;;;;17.16;80.75;101046.47;4889576;29;20119;-79
2023/06/16 07:00:03;;;;;;;11.65;7.63;;;;;;;17.43;80.14;101049.16;4898194;29;20135;-82
2023/06/16 07:02:31;;;;;;;10.27;8.18;;;;;;;17.56;79.59;101042.56;4876450;29;20043;-79
2023/06/16 07:04:58;;;;;;;11.18;8.15;;;;;;;17.57;79.60;101046.06;4868177;29;20093;-78
2023/06/16 07:07:24;;;;;;;9.20;8.30;;;;;;;17.42;79.73;101048.28;4895187;29;20058;-83
2023/06/16 07:09:51;;;;;;;12.30;9.32;;;;;;;17.34;79.56;101052.97;4881660;29;20119;-78
2023/06/16 07:12:17;;;;;;;10.15;8.15;;;;;;;17.25;80.41;101053.22;4886234;29;20499;-79
2023/06/16 07:14:47;;;;;;;12.48;9.82;;;;;;;17.25;80.49;101048.81;4864585;29;20093;-78
2023/06/16 07:17:14;;;;;;;9.68;8.68;;;;;;;17.35;80.40;101049.38;4905295;29;20048;-78
2023/06/16 07:19:44;;;;;;;13.57;9.27;;;;;;;17.43;79.98;101050.03;4900701;29;20055;-83
2023/06/16 07:22:10;;;;;;;9.43;8.38;;;;;;;17.25;81.04;101045.28;4893037;29;20044;-79
2023/06/16 07:24:37;;;;;;;9.30;7.90;;;;;;;17.37;81.08;101044.94;4884479;29;20048;-79
2023/06/16 07:27:05;;;;;;;9.30;8.38;;;;;;;17.50;80.31;101037.47;4882035;29;20520;-78
2023/06/16 07:29:32;;;;;;;9.23;7.85;;;;;;;17.55;80.37;101026.72;4877788;29;20060;-78
2023/06/16 07:31:58;;;;;;;10.07;8.98;;;;;;;17.35;81.57;101031.75;4881261;29;20044;-78
2023/06/16 07:34:25;;;;;;;13.88;9.10;;;;;;;17.14;82.45;101030.63;4883830;29;20041;-79
2023/06/16 07:36:51;;;;;;;11.35;9.95;;;;;;;17.06;83.13;101034.41;4884639;29;20044;-79
2023/06/16 07:39:18;;;;;;;12.55;9.25;;;;;;;17.05;83.47;101036.19;4866779;29;20053;-81
2023/06/16 07:41:45;;;;;;;11.65;8.43;;;;;;;17.15;83.36;101034.13;4902573;29;20055;-82
2023/06/16 07:44:11;;;;;;;9.90;8.82;;;;;;;17.49;82.80;101027.78;4918674;29;20036;-79
2023/06/16 07:46:39;;;;;;;11.10;8.50;;;;;;;18.19;80.34;101029.06;4923167;29;20040;-80
2023/06/16 07:49:06;;;;;;;10.18;8.38;;;;;;;19.27;75.74;101026.91;4916185;29;20046;-83
2023/06/16 07:51:32;;;;;;;10.50;8.05;;;;;;;20.16;70.56;101022.38;4898632;29;20043;-78
2023/06/16 07:53:59;;;;;;;8.43;7.38;;;;;;;20.65;68.20;101022.00;4913685;29;20043;-78
2023/06/16 07:56:25;;;;;;;8.93;8.10;;;;;;;21.09;65.56;101012.91;4899115;29;20052;-84
2023/06/16 07:58:52;;;;;;;8.93;7.35;;;;;;;21.43;65.67;101017.50;4900099;29;20091;-80
2023/06/16 08:01:18;;;;;;;9.40;7.03;;;;;;;22.11;64.18;101010.59;4925829;29;20482;-79
2023/06/16 08:03:46;;;;;;;7.20;6.07;;;;;;;22.50;60.04;101012.13;4916366;29;20048;-79
2023/06/16 08:06:12;;;;;;;7.93;7.13;;;;;;;21.96;61.24;101004.25;4932153;29;20043;-78
2023/06/16 08:08:39;;;;;;;7.40;5.75;;;;;;;22.39;62.21;101004.72;4921615;29;20040;-79
2023/06/16 08:11:07;;;;;;;7.72;6.93;;;;;;;22.28;60.68;101005.25;4902864;29;20040;-83
2023/06/16 08:13:34;;;;;;;9.18;6.82;;;;;;;22.21;62.40;101005.66;4909918;29;20472;-84
2023/06/16 08:16:01;;;;;;;8.80;6.78;;;;;;;21.79;63.50;101013.97;4930923;29;20048;-85
2023/06/16 08:18:27;;;;;;;12.70;7.35;;;;;;;21.34;65.78;101011.75;4915156;29;20043;-79
2023/06/16 08:20:55;;;;;;;10.60;8.18;;;;;;;21.14;66.41;101008.25;4912033;29;20610;-82
2023/06/16 08:23:21;;;;;;;10.10;6.50;;;;;;;21.45;65.95;100999.63;4912799;29;20131;-81
2023/06/16 08:25:49;;;;;;;7.85;7.03;;;;;;;21.30;64.87;101013.69;4929657;29;20140;-80
2023/06/16 08:28:15;;;;;;;7.65;7.03;;;;;;;20.74;66.24;101005.66;4930184;29;20076;-79
2023/06/16 08:30:42;;;;;;;8.10;7.28;;;;;;;20.37;67.73;101014.41;4931288;29;20045;-81
2023/06/16 08:33:09;;;;;;;9.60;8.48;;;;;;;20.16;68.72;101009.09;4913427;29;20436;-80
2023/06/16 08:35:41;;;;;;;10.10;7.75;;;;;;;19.94;70.11;101010.00;4912889;29;20041;-79
2023/06/16 08:38:07;;;;;;;7.57;6.88;;;;;;;20.07;69.59;101007.69;4919909;29;20055;-79
2023/06/16 08:40:35;;;;;;;11.02;7.45;;;;;;;20.49;68.63;100995.22;4913387;29;20045;-79
2023/06/16 08:43:06;;;;;;;8.93;6.72;;;;;;;20.72;67.52;100993.38;4901697;29;20036;-80
2023/06/16 08:45:35;;;;;;;6.30;5.68;;;;;;;21.33;66.21;100997.56;4899798;29;20475;-79
2023/06/16 08:48:02;;;;;;;9.88;6.53;;;;;;;22.04;63.00;100993.19;4899728;29;20051;-81
2023/06/16 08:50:29;;;;;;;8.88;6.28;;;;;;;22.37;61.89;100990.59;4931364;29;20040;-82
2023/06/16 08:52:57;;;;;;;7.05;6.38;;;;;;;22.92;60.84;100996.56;4879773;29;20119;-80
2023/06/16 08:55:25;;;;;;;8.27;6.22;;;;;;;23.45;59.61;100989.13;4900743;29;20056;-81
2023/06/16 08:57:53;;;;;;;7.32;6.35;;;;;;;23.51;57.53;100987.94;4910330;29;20036;-79
2023/06/16 09:00:20;;;;;;;9.50;6.78;;;;;;;23.76;57.29;100990.03;4917134;29;20044;-79
2023/06/16 09:02:48;;;;;;;6.07;5.50;;;;;;;23.61;56.01;100984.63;4915095;29;20055;-79
2023/06/16 09:05:16;;;;;;;7.30;5.68;;;;;;;24.11;55.54;100987.94;4915478;29;20467;-81
2023/06/16 09:07:44;;;;;;;6.35;5.75;;;;;;;25.29;50.99;100974.38;4898280;29;20360;-79
2023/06/16 09:10:11;;;;;;;6.30;5.22;;;;;;;26.91;47.44;100979.38;4915114;29;20443;-79
2023/06/16 09:12:37;;;;;;;5.90;5.40;;;;;;;28.39;43.29;100984.38;4915136;29;20056;-80
2023/06/16 09:15:10;;;;;;;6.85;6.25;;;;;;;29.04;39.84;100976.47;4907779;29;20037;-84
2023/06/16 09:17:40;;;;;;;6.45;5.95;;;;;;;29.83;38.04;100978.03;4908559;29;20135;-78
2023/06/16 09:20:14;;;;;;;6.82;6.32;;;;;;;29.94;37.61;100979.84;4912216;29;20115;-83
2023/06/16 09:22:40;;;;;;;6.32;5.50;;;;;;;29.93;38.53;100979.97;4915088;29;20044;-84
2023/06/16 09:25:09;;;;;;;7.10;6.40;;;;;;;30.66;35.94;100982.63;4914792;29;20088;-80
2023/06/16 09:27:55;;;;;;;6.30;5.80;;;;;;;31.10;34.81;100979.66;4915970;29;20055;-82
2023/06/16 09:30:33;;;;;;;6.10;5.43;;;;;;;31.58;34.66;100986.09;4927758;29;20067;-78
2023/06/16 09:33:00;;;;;;;5.63;5.22;;;;;;;30.85;34.19;100992.66;4933883;29;20044;-80
2023/06/16 09:35:29;;;;;;;11.55;6.03;;;;;;;29.93;33.87;100986.22;4898608;29;20046;-80
2023/06/16 09:38:03;;;;;;;5.60;5.10;;;;;;;29.69;35.03;100972.97;4912107;29;20099;-82
2023/06/16 09:40:34;;;;;;;4.72;4.45;;;;;;;28.90;37.09;100984.00;4913067;29;20059;-79
2023/06/16 09:43:03;;;;;;;8.35;6.25;;;;;;;28.94;36.36;100978.22;4897115;29;20040;-79
2023/06/16 09:45:34;;;;;;;10.05;6.22;;;;;;;28.60;37.02;100980.91;4882003;29;20658;-82
2023/06/16 09:48:09;;;;;;;6.65;6.03;;;;;;;28.59;37.65;100976.53;4877750;29;20040;-80
2023/06/16 09:50:37;;;;;;;8.07;7.38;;;;;;;29.51;36.86;100978.09;4875118;29;20116;-80
2023/06/16 09:53:08;;;;;;;7.25;6.55;;;;;;;30.34;35.18;100972.81;4877098;29;20058;-87
2023/06/16 09:55:39;;;;;;;7.18;6.57;;;;;;;30.82;34.49;100969.47;4892953;29;20073;-82
2023/06/16 09:58:07;;;;;;;8.95;6.60;;;;;;;30.80;34.81;100965.19;4879107;29;20047;-82
2023/06/16 10:00:34;;;;;;;6.95;6.35;;;;;;;31.05;34.70;100963.00;4877498;29;20131;-82
2023/06/16 10:03:02;;;;;;;6.72;6.22;;;;;;;31.71;33.04;100966.84;4888342;29;20037;-82
2023/06/16 10:05:34;;;;;;;6.65;6.00;;;;;;;32.45;32.33;100958.00;4876674;29;20044;-81
2023/06/16 10:08:06;;;;;;;6.85;6.25;;;;;;;32.88;31.41;100955.66;4893756;29;20059;-80
2023/06/16 10:10:34;;;;;;;8.98;6.60;;;;;;;32.81;31.13;100955.41;4891859;29;20136;-80
2023/06/16 10:13:05;;;;;;;7.68;6.97;;;;;;;31.13;33.18;100957.72;4880223;29;20052;-80
2023/06/16 10:15:40;;;;;;;6.60;6.00;;;;;;;30.18;34.92;100952.56;4873868;29;20161;-84
2023/06/16 10:18:08;;;;;;;7.20;6.13;;;;;;;29.94;35.33;100942.06;4874760;29;20043;-80
2023/06/16 10:20:37;;;;;;;7.18;5.82;;;;;;;29.61;35.64;100946.66;4886520;29;20115;-82
2023/06/16 10:23:04;;;;;;;5.30;4.80;;;;;;;30.31;35.25;100946.06;4878499;29;20051;-83
2023/06/16 10:25:32;;;;;;;6.25;5.70;;;;;;;31.75;32.34;100935.81;4882378;29;20111;-81
2023/06/16 10:28:00;;;;;;;6.07;5.47;;;;;;;32.41;31.40;100944.88;4870520;29;20041;-78
2023/06/16 10:30:28;;;;;;;5.07;4.00;;;;;;;32.77;30.90;100936.88;4877612;29;20040;-82
2023/06/16 10:32:58;;;;;;;4.95;4.55;;;;;;;31.97;31.34;100931.94;4896076;29;20045;-85
2023/06/16 10:35:24;;;;;;;5.82;4.28;;;;;;;31.11;31.88;100938.13;4881086;29;20064;-82
2023/06/16 10:38:01;;;;;;;4.57;4.18;;;;;;;30.30;33.14;100936.28;4864550;29;20139;-82
2023/06/16 10:40:30;;;;;;;4.97;4.07;;;;;;;31.18;32.50;100937.41;4875685;29;20144;-80
2023/06/16 10:42:58;;;;;;;4.25;3.97;;;;;;;32.66;30.29;100936.06;4911313;29;20048;-80
2023/06/16 10:45:31;;;;;;;5.10;4.63;;;;;;;33.13;29.24;100936.94;4912754;29;20040;-80
2023/06/16 10:48:04;;;;;;;4.25;3.95;;;;;;;32.66;30.23;100936.06;4913092;29;20482;-80
2023/06/16 10:50:39;;;;;;;;;;;;;;;33.35;29.51;100927.50;4912888;29;20044;-81
2023/06/16 10:53:17;;;;;;;5.00;4.60;;;;;;;34.13;28.16;100925.81;4905182;29;19925;-86
2023/06/16 10:55:45;;;;;;;4.68;4.22;;;;;;;34.89;27.60;100929.56;4913520;29;20040;-81
2023/06/16 10:58:18;;;;;;;6.22;4.65;;;;;;;35.57;26.53;100922.13;4913481;29;20051;-79
2023/06/16 11:01:24;;;;;;;5.55;5.05;;;;;;;36.03;25.66;100926.19;4914991;29;20071;-80
2023/06/16 11:04:01;;;;;;;5.07;4.68;;;;;;;36.37;25.79;100916.88;4907296;29;20051;-86
2023/06/16 11:06:28;;;;;;;5.60;4.50;;;;;;;36.13;26.11;100915.94;4910492;29;20051;-80
2023/06/16 11:08:57;;;;;;;5.38;4.80;;;;;;;36.04;26.02;100919.72;4890064;29;20155;-90
2023/06/16 11:11:36;;;;;;;7.13;4.78;;;;;;;35.93;25.72;100923.63;4923535;29;20044;-80
2023/06/16 11:14:02;;;;;;;5.30;4.80;;;;;;;35.85;25.65;100905.44;4910325;29;20063;-83
2023/06/16 11:16:29;;;;;;;3.83;3.53;;;;;;;35.57;25.29;100913.97;4918336;29;20040;-81
2023/06/16 11:18:58;;;;;;;5.18;4.03;;;;;;;35.25;26.25;100912.97;4926862;29;20050;-81
2023/06/16 11:21:28;;;;;;;4.68;4.20;;;;;;;35.02;26.06;100914.63;4925950;29;20159;-81
2023/06/16 11:23:55;;;;;;;4.18;3.80;;;;;;;36.09;25.26;100909.13;4912538;29;20055;-82
2023/06/16 11:26:21;;;;;;;3.13;3.00;;;;;;;37.12;23.72;100906.38;4923375;29;20054;-82
2023/06/16 11:28:49;;;;;;;4.85;4.38;;;;;;;36.85;23.85;100914.09;4925400;29;20040;-85
2023/06/16 11:31:20;;;;;;;4.30;4.00;;;;;;;37.75;23.21;100904.28;4909511;29;20036;-89
2023/06/16 11:33:47;;;;;;;4.32;3.97;;;;;;;37.87;23.11;100894.66;4895291;29;20043;-83
2023/06/16 11:36:18;;;;;;;3.55;3.35;;;;;;;38.72;22.20;100903.31;4929524;29;20067;-82
2023/06/16 11:38:46;;;;;;;4.32;4.05;;;;;;;37.63;22.02;100901.19;4897633;29;20063;-81
2023/06/16 11:41:29;;;;;;;4.65;4.20;;;;;;;37.53;22.10;100895.13;4913917;29;20051;-80
2023/06/16 11:43:57;;;;;;;5.15;3.67;;;;;;;38.47;21.87;100900.03;4894683;29;20071;-85
2023/06/16 11:46:30;;;;;;;3.78;3.58;;;;;;;39.27;21.09;100900.09;4905981;29;20048;-81
2023/06/16 11:48:58;;;;;;;3.92;3.63;;;;;;;39.46;20.20;100898.53;4909476;29;20127;-82
2023/06/16 11:51:24;;;;;;;4.40;3.30;;;;;;;39.69;19.88;100897.47;4911581;29;20062;-83
2023/06/16 11:53:52;;;;;;;3.25;3.05;;;;;;;38.78;20.99;100888.00;4914362;29;20072;-82